sensor_id;sensor_type;location;lat;lon;timestamp;pressure;altitude;pressure_sealevel;temperature;humidity
14757;BME280;62446;53.214;10.398;2022-11-04T00:26:57;99796.78;;;7.16;92.92
14757;BME280;62446;53.214;10.398;2022-11-04T00:30:18;99793.13;;;7.34;90.64
14757;BME280;62446;53.214;10.398;2022-11-04T00:33:22;99792.56;;;7.44;89.97
14757;BME280;62446;53.214;10.398;2022-11-04T00:36:27;99793.28;;;7.51;89.49
14757;BME280;62446;53.214;10.398;2022-11-04T00:39:31;99781.84;;;7.54;88.58
14757;BME280;62446;53.214;10.398;2022-11-04T00:42:36;99792.81;;;7.54;88.61
14757;BME280;62446;53.214;10.398;2022-11-04T00:45:40;99783.16;;;7.64;88.24
14757;BME280;62446;53.214;10.398;2022-11-04T00:48:43;99792.81;;;7.66;88.58
14757;BME280;62446;53.214;10.398;2022-11-04T00:51:47;99792.34;;;7.57;88.13
14757;BME280;62446;53.214;10.398;2022-11-04T00:54:50;99779.94;;;7.67;88.13
14757;BME280;62446;53.214;10.398;2022-11-04T00:57:56;99790.56;;;7.51;88.37
14757;BME280;62446;53.214;10.398;2022-11-04T01:01:06;99782.66;;;7.55;88.19
14757;BME280;62446;53.214;10.398;2022-11-04T01:04:10;99784.91;;;7.46;88.72
14757;BME280;62446;53.214;10.398;2022-11-04T01:07:13;99774.44;;;7.43;89.01
14757;BME280;62446;53.214;10.398;2022-11-04T01:10:17;99779.69;;;7.56;88.13
14757;BME280;62446;53.214;10.398;2022-11-04T01:13:22;99785.19;;;7.56;88.58
14757;BME280;62446;53.214;10.398;2022-11-04T01:16:26;99778.97;;;7.49;88.62
14757;BME280;62446;53.214;10.398;2022-11-04T01:19:31;99781.94;;;7.59;88.82
14757;BME280;62446;53.214;10.398;2022-11-04T01:22:34;99786.03;;;7.57;88.43
14757;BME280;62446;53.214;10.398;2022-11-04T01:25:38;99791.88;;;7.60;89.00
14757;BME280;62446;53.214;10.398;2022-11-04T01:28:44;99793.78;;;7.48;89.93
14757;BME280;62446;53.214;10.398;2022-11-04T01:31:49;99780.16;;;7.53;90.24
14757;BME280;62446;53.214;10.398;2022-11-04T01:34:52;99776.19;;;7.37;91.09
14757;BME280;62446;53.214;10.398;2022-11-04T18:21:02;100615.63;;;7.17;86.23
14757;BME280;62446;53.214;10.398;2022-11-04T18:24:06;100605.78;;;7.61;82.41
14757;BME280;62446;53.214;10.398;2022-11-04T18:27:10;100606.44;;;7.50;82.14
14757;BME280;62446;53.214;10.398;2022-11-04T18:30:14;100606.66;;;7.55;81.62
14757;BME280;62446;53.214;10.398;2022-11-04T18:33:18;100603.91;;;7.55;81.11
14757;BME280;62446;53.214;10.398;2022-11-04T18:36:23;100600.00;;;7.76;78.82
14757;BME280;62446;53.214;10.398;2022-11-04T18:39:26;100604.81;;;7.81;78.16
14757;BME280;62446;53.214;10.398;2022-11-04T18:42:30;100606.09;;;7.85;78.46
14757;BME280;62446;53.214;10.398;2022-11-04T18:45:35;100609.88;;;7.84;78.06
14757;BME280;62446;53.214;10.398;2022-11-04T18:48:39;100610.75;;;7.78;78.04
14757;BME280;62446;53.214;10.398;2022-11-04T18:51:45;100611.41;;;7.80;77.47
14757;BME280;62446;53.214;10.398;2022-11-04T18:54:49;100612.00;;;7.82;77.32
14757;BME280;62446;53.214;10.398;2022-11-04T18:57:53;100612.47;;;7.79;77.63
14757;BME280;62446;53.214;10.398;2022-11-04T19:00:57;100613.75;;;7.70;77.01
14757;BME280;62446;53.214;10.398;2022-11-04T19:04:01;100618.00;;;7.66;76.71
14757;BME280;62446;53.214;10.398;2022-11-04T19:07:05;100624.13;;;7.61;77.79
14757;BME280;62446;53.214;10.398;2022-11-04T19:10:09;100621.81;;;7.58;77.46
14757;BME280;62446;53.214;10.398;2022-11-04T19:13:13;100623.09;;;7.55;77.08
14757;BME280;62446;53.214;10.398;2022-11-04T19:16:20;100632.81;;;7.51;77.20
14757;BME280;62446;53.214;10.398;2022-11-04T19:19:24;100633.47;;;7.47;76.49
14757;BME280;62446;53.214;10.398;2022-11-04T19:22:29;100638.09;;;7.46;76.70
14757;BME280;62446;53.214;10.398;2022-11-04T19:25:33;100643.84;;;7.38;77.41
14757;BME280;62446;53.214;10.398;2022-11-04T19:28:39;100643.00;;;7.31;76.65
14757;BME280;62446;53.214;10.398;2022-11-04T19:31:50;100645.09;;;7.29;78.22
14757;BME280;62446;53.214;10.398;2022-11-04T19:34:53;100654.00;;;7.17;77.79
14757;BME280;62446;53.214;10.398;2022-11-04T19:37:58;100655.28;;;7.15;75.89
14757;BME280;62446;53.214;10.398;2022-11-04T19:41:04;100658.66;;;7.10;77.49
14757;BME280;62446;53.214;10.398;2022-11-04T19:44:10;100668.78;;;7.03;77.33
14757;BME280;62446;53.214;10.398;2022-11-04T19:47:13;100663.72;;;7.00;76.21
14757;BME280;62446;53.214;10.398;2022-11-04T19:50:16;100669.63;;;6.97;77.07
14757;BME280;62446;53.214;10.398;2022-11-04T19:53:22;100670.47;;;6.97;77.19
14757;BME280;62446;53.214;10.398;2022-11-04T19:56:25;100670.41;;;6.90;75.49
14757;BME280;62446;53.214;10.398;2022-11-04T19:59:29;100674.00;;;6.84;76.75
14757;BME280;62446;53.214;10.398;2022-11-04T20:02:32;100677.19;;;6.81;75.69
14757;BME280;62446;53.214;10.398;2022-11-04T20:05:37;100683.06;;;6.85;76.86
14757;BME280;62446;53.214;10.398;2022-11-04T20:08:44;100687.72;;;6.78;76.45
14757;BME280;62446;53.214;10.398;2022-11-04T20:11:47;100692.78;;;6.81;76.90
14757;BME280;62446;53.214;10.398;2022-11-04T20:15:09;100691.50;;;6.70;76.69
14757;BME280;62446;53.214;10.398;2022-11-04T20:18:13;100688.97;;;6.62;75.85
14757;BME280;62446;53.214;10.398;2022-11-04T20:21:18;100697.19;;;6.62;76.62
14757;BME280;62446;53.214;10.398;2022-11-04T20:24:23;100697.81;;;6.64;76.60
14757;BME280;62446;53.214;10.398;2022-11-04T20:27:27;100700.75;;;6.55;75.76
14757;BME280;62446;53.214;10.398;2022-11-04T20:30:31;100705.59;;;6.53;76.34
14757;BME280;62446;53.214;10.398;2022-11-04T20:33:38;100710.03;;;6.54;75.26
14757;BME280;62446;53.214;10.398;2022-11-04T20:36:42;100705.63;;;6.60;76.61
14757;BME280;62446;53.214;10.398;2022-11-04T20:39:47;100717.19;;;6.55;75.31
14757;BME280;62446;53.214;10.398;2022-11-04T20:42:51;100720.34;;;6.52;75.34
14757;BME280;62446;53.214;10.398;2022-11-04T20:45:54;100726.88;;;6.51;76.74
14757;BME280;62446;53.214;10.398;2022-11-04T20:48:59;100721.41;;;6.51;75.65
14757;BME280;62446;53.214;10.398;2022-11-04T20:52:04;100730.66;;;6.50;75.31
14757;BME280;62446;53.214;10.398;2022-11-04T20:55:10;100742.47;;;6.44;76.50
14757;BME280;62446;53.214;10.398;2022-11-04T20:58:13;100743.91;;;6.40;76.82
14757;BME280;62446;53.214;10.398;2022-11-04T21:01:19;100743.25;;;6.38;76.00
14757;BME280;62446;53.214;10.398;2022-11-04T21:04:27;100755.91;;;6.39;76.25
14757;BME280;62446;53.214;10.398;2022-11-04T21:07:37;100753.59;;;6.36;77.04
14757;BME280;62446;53.214;10.398;2022-11-04T21:10:42;100762.63;;;6.30;77.02
14757;BME280;62446;53.214;10.398;2022-11-04T21:13:50;100754.81;;;6.27;76.69
14757;BME280;62446;53.214;10.398;2022-11-04T21:16:54;100763.03;;;6.27;76.37
14757;BME280;62446;53.214;10.398;2022-11-04T21:19:57;100772.09;;;6.20;76.83
14757;BME280;62446;53.214;10.398;2022-11-04T21:23:01;100776.06;;;6.25;76.37
14757;BME280;62446;53.214;10.398;2022-11-04T21:26:07;100778.19;;;6.22;76.27
14757;BME280;62446;53.214;10.398;2022-11-04T21:29:13;100784.69;;;6.21;76.09
14757;BME280;62446;53.214;10.398;2022-11-04T21:32:17;100783.03;;;6.20;76.62
14757;BME280;62446;53.214;10.398;2022-11-04T21:35:21;100800.44;;;6.13;76.27
14757;BME280;62446;53.214;10.398;2022-11-04T21:38:24;100797.09;;;6.17;76.12
14757;BME280;62446;53.214;10.398;2022-11-04T21:41:30;100801.31;;;6.13;77.13
14757;BME280;62446;53.214;10.398;2022-11-04T21:44:38;100796.69;;;6.14;76.06
14757;BME280;62446;53.214;10.398;2022-11-04T21:47:42;100803.84;;;6.15;76.04
14757;BME280;62446;53.214;10.398;2022-11-04T21:50:45;100808.88;;;6.11;76.30
14757;BME280;62446;53.214;10.398;2022-11-04T21:53:49;100808.66;;;6.06;76.10
14757;BME280;62446;53.214;10.398;2022-11-04T21:56:54;100819.34;;;6.01;76.79
14757;BME280;62446;53.214;10.398;2022-11-04T21:59:57;100811.78;;;6.03;76.71
14757;BME280;62446;53.214;10.398;2022-11-04T22:03:01;100813.47;;;6.04;76.43
14757;BME280;62446;53.214;10.398;2022-11-04T22:06:06;100811.81;;;6.10;77.00
